Time;durP1;ratioP1;P1;durP2;ratioP2;P2;SDS_P1;SDS_P2;PMS_P1;PMS_P2;Temp;Humidity;BMP_temperature;BMP_pressure;BME280_temperature;BME280_humidity;BME280_pressure;Samples;Min_cycle;Max_cycle;Signal;HPM_P1;HPM_P2
2022/12/03 00:01:44;;;;;;;28.63;21.07;;;;;;;6.11;61.15;98144.69;8380136;28;20255;-74
2022/12/03 00:05:47;;;;;;;28.17;21.03;;;;;;;6.01;60.97;98139.75;8380134;28;20516;-75
2022/12/03 00:09:51;;;;;;;30.57;21.30;;;;;;;5.68;61.00;98146.50;8380128;28;20255;-74
2022/12/03 00:13:55;;;;;;;30.47;21.87;;;;;;;5.88;61.12;98144.34;8371343;28;20428;-74
2022/12/03 00:17:57;;;;;;;33.90;23.93;;;;;;;6.00;60.73;98144.97;8379904;28;20233;-74
2022/12/03 00:22:00;;;;;;;29.57;21.57;;;;;;;6.05;60.82;98136.25;8379705;28;20319;-74
2022/12/03 00:26:03;;;;;;;33.00;22.60;;;;;;;6.02;60.26;98141.47;8379779;28;20610;-74
2022/12/03 00:30:09;;;;;;;29.47;24.53;;;;;;;6.44;59.22;98125.03;8379258;28;20406;-74
2022/12/03 00:34:12;;;;;;;31.40;23.90;;;;;;;6.11;60.44;98132.72;8381823;28;20244;-75
2022/12/03 00:38:15;;;;;;;29.27;21.27;;;;;;;6.25;60.46;98135.78;8386154;28;20225;-74
2022/12/03 00:42:18;;;;;;;30.03;21.43;;;;;;;6.07;60.95;98134.50;8386170;28;20224;-74
2022/12/03 00:46:22;;;;;;;31.10;22.43;;;;;;;5.71;61.25;98125.00;8386087;28;20456;-74
2022/12/03 00:50:25;;;;;;;34.87;23.47;;;;;;;5.25;63.32;98131.97;8385683;28;20290;-74
2022/12/03 00:54:28;;;;;;;29.63;21.97;;;;;;;5.85;61.26;98138.41;8385578;28;20244;-74
2022/12/03 00:58:33;;;;;;;33.07;23.40;;;;;;;5.27;63.16;98138.78;8385613;28;20552;-74
2022/12/03 01:02:38;;;;;;;32.10;22.73;;;;;;;5.78;62.57;98134.28;8385505;28;20229;-75
2022/12/03 01:06:41;;;;;;;31.83;22.93;;;;;;;5.97;61.79;98138.16;8385396;28;20237;-73
2022/12/03 01:10:44;;;;;;;31.93;21.53;;;;;;;6.02;61.97;98135.50;8385116;28;20259;-75
2022/12/03 01:14:46;;;;;;;31.33;22.43;;;;;;;6.10;61.77;98138.72;8384879;28;20275;-74
2022/12/03 01:18:51;;;;;;;30.33;22.33;;;;;;;5.96;61.74;98135.59;8384864;28;20454;-74
2022/12/03 01:22:54;;;;;;;29.23;21.87;;;;;;;6.02;61.31;98136.31;8384434;28;20229;-74
2022/12/03 01:26:57;;;;;;;31.63;23.67;;;;;;;5.76;61.42;98131.75;8384367;28;20410;-74
2022/12/03 01:35:21;;;;;;;31.43;23.50;;;;;;;5.92;61.61;98145.09;8384449;28;20240;-74
2022/12/03 01:39:26;;;;;;;33.67;24.47;;;;;;;5.56;61.93;98147.59;8384400;28;20225;-74
2022/12/03 01:43:31;;;;;;;30.63;22.97;;;;;;;5.97;61.48;98142.44;8383888;28;20455;-74
2022/12/03 01:47:35;;;;;;;30.73;22.33;;;;;;;5.77;60.55;98143.72;8382969;28;20224;-75
2022/12/03 01:51:39;;;;;;;29.93;21.57;;;;;;;5.87;62.05;98137.47;8384033;28;20469;-75
2022/12/03 01:55:43;;;;;;;30.87;22.73;;;;;;;5.75;62.00;98147.19;8383766;28;20437;-74
2022/12/03 01:59:51;;;;;;;31.77;23.63;;;;;;;5.98;61.09;98142.41;8383820;28;20511;-75
2022/12/03 02:03:53;;;;;;;31.60;22.33;;;;;;;5.98;61.74;98139.00;8375117;28;20233;-74
2022/12/03 02:07:58;;;;;;;32.37;23.10;;;;;;;5.69;60.92;98140.47;8383279;28;20594;-75
2022/12/03 02:12:00;;;;;;;31.63;22.63;;;;;;;5.58;62.33;98139.84;8383111;28;20300;-74
2022/12/03 02:16:04;;;;;;;32.23;23.43;;;;;;;5.98;61.30;98136.44;8383383;28;20295;-74
2022/12/03 02:20:09;;;;;;;31.77;22.70;;;;;;;6.06;61.23;98143.09;8383070;28;20374;-74
2022/12/03 02:24:21;;;;;;;30.77;23.17;;;;;;;5.78;61.17;98142.00;8382771;28;20233;-75
2022/12/03 02:28:25;;;;;;;32.17;22.90;;;;;;;5.98;61.45;98142.41;8382643;28;20241;-74
2022/12/03 02:32:28;;;;;;;31.40;23.37;;;;;;;5.87;61.59;98149.50;8382829;28;20236;-75
2022/12/03 02:36:30;;;;;;;32.13;23.03;;;;;;;5.96;61.09;98146.75;8382476;28;20237;-74
2022/12/03 02:40:33;;;;;;;30.20;22.33;;;;;;;5.96;61.22;98151.91;8382190;28;20231;-74
2022/12/03 02:44:38;;;;;;;30.90;22.67;;;;;;;5.54;62.13;98143.34;8382355;28;20229;-75
2022/12/03 02:48:41;;;;;;;31.60;23.30;;;;;;;5.81;61.57;98141.94;8382133;28;20228;-75
2022/12/03 02:52:45;;;;;;;32.27;23.83;;;;;;;5.90;61.56;98139.13;8381938;28;20473;-74
2022/12/03 02:56:47;;;;;;;30.20;22.30;;;;;;;6.04;61.35;98142.28;8381458;28;20412;-74
2022/12/03 03:00:53;;;;;;;29.10;21.60;;;;;;;6.06;60.73;98148.22;8381988;28;20306;-74
2022/12/03 03:04:56;;;;;;;33.13;23.73;;;;;;;5.71;61.18;98138.69;8381210;28;20236;-74
2022/12/03 03:08:59;;;;;;;33.13;23.87;;;;;;;5.94;61.28;98140.78;8381482;28;20252;-74
2022/12/03 03:13:04;;;;;;;31.53;22.93;;;;;;;5.53;61.63;98145.09;8381432;28;20232;-74
2022/12/03 03:17:08;;;;;;;31.87;23.67;;;;;;;5.90;60.92;98146.84;8381387;28;20294;-74
2022/12/03 03:21:12;;;;;;;31.00;23.10;;;;;;;5.72;62.28;98142.97;8381355;28;20233;-74
2022/12/03 03:25:17;;;;;;;31.80;22.93;;;;;;;5.97;60.87;98151.00;8380984;28;20248;-74
2022/12/03 03:29:20;;;;;;;31.87;23.87;;;;;;;5.47;62.82;98146.06;8380942;28;20229;-75
2022/12/03 03:33:24;;;;;;;31.70;23.97;;;;;;;5.75;61.50;98144.63;8380618;28;20248;-75
2022/12/03 03:37:28;;;;;;;30.20;22.47;;;;;;;5.86;62.08;98135.81;8380778;28;20243;-75
2022/12/03 03:41:31;;;;;;;33.27;24.10;;;;;;;5.88;61.85;98141.75;8380555;28;20237;-75
2022/12/03 03:45:34;;;;;;;32.23;24.03;;;;;;;5.75;61.97;98140.34;8380380;28;20255;-74
2022/12/03 03:49:38;;;;;;;32.93;24.20;;;;;;;5.41;62.74;98135.94;8380590;28;20246;-74
2022/12/03 03:53:43;;;;;;;32.50;24.00;;;;;;;5.37;63.64;98134.31;8380468;28;20512;-74
2022/12/03 03:57:46;;;;;;;31.73;23.60;;;;;;;5.38;63.59;98141.13;8380183;28;20444;-74
2022/12/03 04:01:49;;;;;;;33.03;23.47;;;;;;;5.40;63.27;98133.38;8380100;28;20237;-74
2022/12/03 04:05:53;;;;;;;32.33;24.17;;;;;;;5.31;62.67;98134.41;8372063;28;20294;-73
2022/12/03 04:09:56;;;;;;;33.50;24.97;;;;;;;5.23;63.93;98132.00;8383707;28;20239;-74
2022/12/03 04:13:58;;;;;;;34.50;24.97;;;;;;;4.70;64.68;98124.47;8386893;28;20425;-74
2022/12/03 04:22:41;;;;;;;33.30;24.77;;;;;;;5.34;63.62;98118.94;8386907;28;20373;-74
2022/12/03 04:35:41;;;;;;;32.83;24.87;;;;;;;4.96;64.54;98117.16;8379640;28;20237;-74
2022/12/03 04:35:41;;;;;;;34.57;23.93;;;;;;;5.19;64.24;98120.09;8386454;28;20232;-74
2022/12/03 04:39:45;;;;;;;34.20;25.00;;;;;;;5.03;65.08;98108.47;8386392;28;20225;-74
2022/12/03 04:48:05;;;;;;;31.37;23.43;;;;;;;5.32;63.94;98127.56;8385510;28;20231;-73
2022/12/03 04:52:08;;;;;;;32.23;23.93;;;;;;;5.20;63.08;98111.53;8385442;28;20240;-74
2022/12/03 04:56:13;;;;;;;35.33;26.17;;;;;;;4.63;64.42;98120.31;8385591;28;20240;-74
2022/12/03 05:00:16;;;;;;;34.07;25.23;;;;;;;4.72;64.42;98121.84;8385548;28;20371;-75
2022/12/03 05:04:19;;;;;;;32.97;23.87;;;;;;;4.56;65.33;98125.59;8385379;28;20282;-74
2022/12/03 05:08:22;;;;;;;34.73;24.27;;;;;;;4.83;65.06;98122.50;8385158;28;20241;-74
2022/12/03 05:12:26;;;;;;;33.23;24.43;;;;;;;4.75;65.41;98114.13;8385022;28;20236;-75
2022/12/03 05:16:29;;;;;;;35.97;25.57;;;;;;;5.18;64.10;98107.28;8385170;28;20263;-75
2022/12/03 05:20:41;;;;;;;32.47;24.00;;;;;;;5.22;63.89;98098.66;8384697;28;20286;-75
2022/12/03 05:24:51;;;;;;;33.17;24.87;;;;;;;4.60;65.59;98104.97;8385088;28;20233;-75
2022/12/03 05:28:56;;;;;;;31.03;23.57;;;;;;;5.24;63.42;98104.63;8376366;28;20332;-74
2022/12/03 05:32:58;;;;;;;35.63;24.37;;;;;;;5.00;63.96;98103.38;8384369;28;20228;-74
2022/12/03 05:37:02;;;;;;;32.93;23.37;;;;;;;4.91;64.31;98104.38;8384479;28;20256;-74
2022/12/03 05:42:52;;;;;;;31.43;23.07;;;;;;;5.22;63.33;98103.81;8384400;28;20416;-74
2022/12/03 05:45:31;;;;;;;32.80;23.73;;;;;;;5.39;62.48;98098.31;8384431;28;20240;-75
2022/12/03 05:49:34;;;;;;;31.20;23.37;;;;;;;5.33;62.50;98108.69;8384205;28;20224;-74
2022/12/03 05:53:37;;;;;;;30.47;22.63;;;;;;;5.46;62.57;98107.56;8384255;28;20221;-74
2022/12/03 05:57:39;;;;;;;31.27;22.73;;;;;;;5.78;61.64;98111.16;8383929;28;20283;-75
2022/12/03 06:01:44;;;;;;;28.83;22.90;;;;;;;5.51;62.83;98110.03;8383843;28;20229;-75
2022/12/03 06:05:47;;;;;;;31.43;23.70;;;;;;;5.32;62.42;98107.03;8383918;28;20233;-75
2022/12/03 06:09:50;;;;;;;30.80;23.37;;;;;;;5.19;63.17;98101.28;8383785;28;20242;-75
2022/12/03 06:13:52;;;;;;;31.90;23.80;;;;;;;5.73;61.99;98089.84;8374991;28;20470;-74
2022/12/03 06:17:56;;;;;;;32.67;24.17;;;;;;;5.19;63.08;98093.59;8383169;28;20243;-74
2022/12/03 06:21:59;;;;;;;32.13;24.10;;;;;;;5.01;64.03;98095.66;8383188;28;20233;-75
2022/12/03 06:26:02;;;;;;;30.57;23.20;;;;;;;5.32;63.49;98091.63;8382866;28;20236;-75
2022/12/03 06:30:07;;;;;;;30.27;22.97;;;;;;;5.66;62.36;98100.25;8382976;28;20239;-75
2022/12/03 06:34:11;;;;;;;31.43;23.10;;;;;;;5.70;62.23;98100.22;8382149;28;20245;-75
2022/12/03 06:38:14;;;;;;;31.30;23.30;;;;;;;5.67;61.80;98104.53;8382814;28;20506;-75
2022/12/03 06:42:16;;;;;;;30.60;23.03;;;;;;;5.52;61.27;98112.59;8382901;28;20306;-75
2022/12/03 06:46:19;;;;;;;30.00;22.97;;;;;;;5.64;61.47;98119.19;8382617;28;20229;-75
2022/12/03 06:50:23;;;;;;;27.70;22.30;;;;;;;5.50;62.35;98122.03;8382418;28;20225;-76
2022/12/03 06:54:26;;;;;;;31.33;22.70;;;;;;;5.09;62.82;98126.31;8382126;28;20259;-74
2022/12/03 06:58:29;;;;;;;28.87;22.73;;;;;;;5.15;63.74;98126.19;8382067;28;20249;-75
2022/12/03 07:02:31;;;;;;;29.20;21.90;;;;;;;5.05;63.45;98135.78;8381782;28;20232;-74
2022/12/03 07:06:36;;;;;;;31.47;22.97;;;;;;;4.56;65.41;98136.69;8381930;28;20275;-75
2022/12/03 07:10:38;;;;;;;31.37;23.53;;;;;;;4.40;65.02;98142.94;8381445;28;20434;-74
2022/12/03 07:14:41;;;;;;;30.53;23.53;;;;;;;4.20;66.10;98139.00;8381430;28;20251;-76
2022/12/03 07:18:44;;;;;;;31.53;23.20;;;;;;;4.27;66.23;98142.31;8381083;28;20246;-75
2022/12/03 07:22:48;;;;;;;30.73;22.43;;;;;;;4.24;66.54;98145.75;8380843;28;20443;-75
2022/12/03 07:26:51;;;;;;;31.77;23.23;;;;;;;4.19;66.66;98129.63;8380474;28;20232;-75
2022/12/03 07:30:54;;;;;;;32.47;23.13;;;;;;;4.26;66.83;98138.03;8380727;28;20227;-74
2022/12/03 07:34:56;;;;;;;30.67;22.70;;;;;;;4.62;65.51;98135.72;8381024;28;20530;-74
2022/12/03 07:39:00;;;;;;;31.73;22.37;;;;;;;4.08;67.00;98141.75;8380675;28;20238;-74
2022/12/03 07:43:04;;;;;;;29.30;21.60;;;;;;;4.25;66.85;98149.19;8379797;28;20232;-75
2022/12/03 07:47:07;;;;;;;30.03;21.47;;;;;;;4.63;65.24;98145.13;8380707;28;20239;-74
2022/12/03 07:51:09;;;;;;;29.77;21.97;;;;;;;4.20;66.39;98144.13;8380522;28;20229;-75
2022/12/03 07:55:18;;;;;;;29.93;22.20;;;;;;;4.34;66.72;98140.47;8380447;28;20221;-75
2022/12/03 07:59:21;;;;;;;27.97;21.40;;;;;;;4.49;66.89;98137.66;8380800;28;20307;-76
2022/12/03 08:03:23;;;;;;;30.00;21.33;;;;;;;4.45;66.46;98131.72;8380694;28;20251;-76
2022/12/03 08:07:26;;;;;;;28.10;20.40;;;;;;;4.60;65.50;98140.03;8380684;28;20294;-76
2022/12/03 08:11:32;;;;;;;26.43;19.33;;;;;;;4.94;63.86;98142.84;8380317;28;20304;-76
2022/12/03 08:15:36;;;;;;;29.43;21.33;;;;;;;5.33;62.49;98124.09;8380255;28;20237;-77
2022/12/03 08:19:43;;;;;;;27.07;20.77;;;;;;;5.38;62.41;98122.28;8380571;28;20295;-76
2022/12/03 08:23:46;;;;;;;27.67;21.77;;;;;;;5.33;62.94;98119.84;8380352;28;20240;-75
2022/12/03 08:27:52;;;;;;;30.43;21.53;;;;;;;5.48;63.06;98123.78;8380321;28;20238;-74
2022/12/03 08:31:55;;;;;;;28.20;21.33;;;;;;;5.47;62.80;98127.25;8371968;28;20231;-75
2022/12/03 08:35:59;;;;;;;32.23;23.27;;;;;;;4.88;64.52;98133.53;8379815;28;20232;-76
2022/12/03 08:40:01;;;;;;;32.40;23.73;;;;;;;4.78;64.95;98126.91;8380877;28;20233;-77
2022/12/03 08:44:18;;;;;;;31.50;25.27;;;;;;;5.04;63.82;98115.28;8393894;28;20239;-76
2022/12/03 08:48:32;;;;;;;32.10;24.03;;;;;;;5.63;62.75;98120.03;8396061;28;20236;-76
2022/12/03 08:52:35;;;;;;;36.93;27.10;;;;;;;5.18;64.31;98095.31;8393010;28;20225;-75
2022/12/03 08:56:39;;;;;;;28.17;21.13;;;;;;;5.72;63.25;98112.13;8399056;28;20233;-75
2022/12/03 09:00:43;;;;;;;32.73;23.63;;;;;;;5.92;62.60;98113.41;8398089;28;20229;-76
2022/12/03 09:04:46;;;;;;;42.27;30.33;;;;;;;5.64;63.76;98094.31;8392539;28;20229;-76
2022/12/03 09:08:49;;;;;;;29.20;22.70;;;;;;;5.65;63.84;98111.44;8386759;28;20240;-76
2022/12/03 09:12:52;;;;;;;29.07;22.97;;;;;;;5.67;62.83;98116.53;8378797;28;20224;-73
2022/12/03 09:16:56;;;;;;;27.00;20.93;;;;;;;5.99;61.72;98105.53;8388970;28;20229;-75
2022/12/03 09:20:59;;;;;;;32.23;23.27;;;;;;;5.63;61.96;98112.34;8387352;28;20228;-75
2022/12/03 09:25:02;;;;;;;32.57;23.40;;;;;;;5.33;63.05;98114.69;8385833;28;20232;-76
2022/12/03 09:29:05;;;;;;;38.43;27.50;;;;;;;5.68;63.01;98131.06;8386560;28;20242;-76
2022/12/03 09:33:15;;;;;;;27.67;21.43;;;;;;;5.97;62.08;98139.88;8385351;28;20221;-76
2022/12/03 09:37:18;;;;;;;27.00;20.63;;;;;;;6.26;61.92;98128.91;8385319;28;20229;-76
2022/12/03 09:41:21;;;;;;;28.33;21.67;;;;;;;5.85;62.30;98126.41;8384850;28;20241;-76
2022/12/03 09:45:24;;;;;;;26.47;20.53;;;;;;;6.22;61.80;98120.41;8384770;28;20255;-75
2022/12/03 09:49:30;;;;;;;27.80;20.60;;;;;;;5.80;62.34;98122.25;8384650;28;20236;-75
2022/12/03 09:53:33;;;;;;;28.07;20.70;;;;;;;6.22;62.39;98132.44;8384419;28;20225;-76
2022/12/03 09:57:42;;;;;;;23.17;18.57;;;;;;;6.34;61.46;98121.00;8384807;28;20240;-78
2022/12/03 10:01:45;;;;;;;28.40;21.27;;;;;;;6.00;61.85;98117.53;8384895;28;20228;-75
2022/12/03 10:05:50;;;;;;;27.93;21.37;;;;;;;5.99;62.16;98118.38;8383604;28;20339;-76
2022/12/03 10:09:53;;;;;;;25.50;20.53;;;;;;;6.39;61.97;98114.00;8375723;28;20245;-75
2022/12/03 10:13:57;;;;;;;28.87;22.00;;;;;;;6.07;62.69;98115.63;8384049;28;20225;-80
2022/12/03 10:18:01;;;;;;;27.93;21.37;;;;;;;5.75;63.04;98106.94;8383847;28;20540;-75
2022/12/03 10:22:05;;;;;;;26.60;20.47;;;;;;;5.70;62.34;98084.78;8383623;28;20225;-75
2022/12/03 10:26:08;;;;;;;28.20;21.63;;;;;;;5.47;63.03;98086.16;8383451;28;20236;-75
2022/12/03 10:30:16;;;;;;;28.53;20.13;;;;;;;5.76;63.26;98092.34;8383601;28;20236;-75
2022/12/03 10:34:24;;;;;;;30.33;22.53;;;;;;;5.57;62.27;98077.34;8383320;28;20294;-76
2022/12/03 10:38:29;;;;;;;28.47;20.83;;;;;;;6.09;61.96;98056.47;8382883;28;20232;-76
2022/12/03 10:42:33;;;;;;;29.80;21.77;;;;;;;6.04;61.53;98043.75;8382651;28;20516;-76
2022/12/03 10:46:36;;;;;;;28.00;21.47;;;;;;;5.66;62.42;98053.19;8383287;28;20244;-76
2022/12/03 10:50:47;;;;;;;28.33;20.93;;;;;;;5.70;62.62;98053.97;8383077;28;20240;-76
2022/12/03 10:54:51;;;;;;;27.37;20.30;;;;;;;6.09;62.05;98039.31;8383020;28;20240;-76
2022/12/03 10:58:55;;;;;;;24.13;18.70;;;;;;;6.04;61.17;98036.88;8382099;28;20228;-76
2022/12/03 11:02:57;;;;;;;25.33;18.63;;;;;;;5.47;62.38;98034.78;8381814;28;20235;-76
2022/12/03 11:07:01;;;;;;;24.03;17.90;;;;;;;5.40;61.76;98041.75;8382229;28;20233;-76
2022/12/03 11:11:07;;;;;;;21.93;16.57;;;;;;;5.67;61.94;98044.56;8381410;28;20248;-76
2022/12/03 11:15:15;;;;;;;26.27;19.00;;;;;;;4.81;63.44;98044.72;8381741;28;20241;-75
2022/12/03 11:19:20;;;;;;;23.20;16.80;;;;;;;4.61;64.77;98046.84;8381387;28;20234;-76
2022/12/03 11:23:56;;;;;;;23.70;17.57;;;;;;;4.98;62.82;98046.09;8381981;28;20293;-76
2022/12/03 11:28:37;;;;;;;25.13;18.30;;;;;;;4.97;63.52;98039.25;8380891;28;20429;-75
2022/12/03 11:33:08;;;;;;;28.97;20.37;;;;;;;5.12;63.23;98026.09;8381633;28;20237;-75
2022/12/03 11:37:25;;;;;;;19.47;15.60;;;;;;;4.85;62.65;98022.41;8380954;28;20335;-74
2022/12/03 11:41:30;;;;;;;23.40;16.37;;;;;;;4.50;64.67;98014.53;8381298;28;20238;-74
2022/12/03 11:45:34;;;;;;;19.37;15.07;;;;;;;4.83;64.04;98014.72;8381266;28;20386;-75
2022/12/03 11:49:47;;;;;;;19.87;15.40;;;;;;;4.77;63.38;98006.31;8381259;28;20229;-75
2022/12/03 11:53:51;;;;;;;21.63;16.87;;;;;;;4.49;65.00;98014.56;8380825;28;20224;-75
2022/12/03 11:57:57;;;;;;;26.03;18.50;;;;;;;6.38;67.02;97994.00;8380113;28;20236;-74
2022/12/03 12:02:00;;;;;;;22.60;16.17;;;;;;;6.60;63.84;97999.41;8380699;28;20522;-80
2022/12/03 12:06:06;;;;;;;15.97;13.00;;;;;;;7.45;60.86;97995.19;8381172;28;20298;-82
2022/12/03 12:10:10;;;;;;;22.33;16.10;;;;;;;6.46;58.40;97990.31;8380196;28;20241;-75
2022/12/03 12:14:13;;;;;;;18.63;14.67;;;;;;;5.46;62.35;97997.09;8380589;28;20493;-77
2022/12/03 12:18:36;;;;;;;18.87;15.03;;;;;;;5.31;61.55;97997.47;8380443;28;20233;-76
2022/12/03 12:22:40;;;;;;;22.63;16.63;;;;;;;5.18;60.70;97984.91;8381834;28;20590;-76
2022/12/03 12:26:50;;;;;;;17.33;13.70;;;;;;;4.56;63.32;97987.91;8381198;28;20290;-75
2022/12/03 12:30:52;;;;;;;20.80;15.40;;;;;;;5.28;61.17;97986.38;8382929;28;20235;-73
2022/12/03 12:34:59;;;;;;;17.80;14.10;;;;;;;5.10;61.50;97963.69;8386769;28;20455;-74
2022/12/03 12:39:07;;;;;;;19.50;14.40;;;;;;;5.59;60.61;97974.56;8386235;28;20243;-74
2022/12/03 12:43:18;;;;;;;22.00;15.97;;;;;;;4.83;61.78;97972.84;8385965;28;20270;-74
2022/12/03 12:47:26;;;;;;;19.27;14.80;;;;;;;4.99;61.48;97981.03;8386377;28;20239;-74
2022/12/03 12:51:29;;;;;;;20.27;13.53;;;;;;;4.65;62.43;97974.06;8386044;28;20235;-74
2022/12/03 12:55:33;;;;;;;18.27;14.33;;;;;;;4.54;63.10;97969.16;8385690;28;20226;-72
2022/12/03 12:59:35;;;;;;;18.97;13.23;;;;;;;4.56;62.82;97969.97;8385575;28;20240;-73
2022/12/03 13:03:39;;;;;;;17.10;13.43;;;;;;;4.68;62.13;97974.88;8385755;28;20607;-74
2022/12/03 13:07:43;;;;;;;17.60;13.23;;;;;;;4.30;62.89;97963.66;8385703;28;20248;-73
2022/12/03 13:11:52;;;;;;;15.93;12.87;;;;;;;5.14;60.43;97960.19;8385478;28;20239;-73
2022/12/03 13:16:00;;;;;;;17.60;14.37;;;;;;;5.29;60.85;97961.53;8385025;28;20243;-73
2022/12/03 13:20:07;;;;;;;15.53;12.23;;;;;;;4.29;63.60;97951.69;8385152;28;20243;-75
2022/12/03 13:24:26;;;;;;;22.00;15.13;;;;;;;4.55;62.75;97931.53;8385233;28;20271;-74
2022/12/03 13:28:32;;;;;;;15.13;11.37;;;;;;;4.34;63.16;97949.06;8385191;28;20260;-74
2022/12/03 13:32:37;;;;;;;13.13;10.83;;;;;;;4.35;63.18;97948.16;8384758;28;20228;-76
2022/12/03 13:36:42;;;;;;;14.93;10.00;;;;;;;4.45;63.36;97941.97;8384591;28;20221;-75
2022/12/03 13:40:45;;;;;;;13.73;10.97;;;;;;;4.49;64.01;97935.91;8383524;28;20253;-74
2022/12/03 13:44:50;;;;;;;14.53;11.67;;;;;;;4.88;62.05;97937.66;8384156;28;20548;-74
2022/12/03 13:48:52;;;;;;;13.47;10.90;;;;;;;4.74;63.33;97943.09;8383531;28;20225;-73
2022/12/03 13:53:03;;;;;;;14.33;11.17;;;;;;;4.94;62.46;97942.66;8383828;28;20541;-75
2022/12/03 13:57:05;;;;;;;12.23;10.47;;;;;;;4.61;63.75;97942.50;8383876;28;20296;-75
2022/12/03 14:01:10;;;;;;;12.33;10.63;;;;;;;4.33;64.20;97942.22;8383793;28;20530;-75
2022/12/03 14:05:13;;;;;;;14.03;10.37;;;;;;;4.56;63.74;97936.63;8383540;28;20220;-76
2022/12/03 14:09:15;;;;;;;13.17;10.70;;;;;;;4.63;63.98;97938.19;8383371;28;20233;-75
2022/12/03 14:13:18;;;;;;;12.60;10.13;;;;;;;4.94;63.44;97934.97;8383516;28;20655;-75
2022/12/03 14:17:22;;;;;;;12.83;10.40;;;;;;;4.96;62.02;97940.91;8383530;28;20233;-74
2022/12/03 14:21:25;;;;;;;13.57;9.97;;;;;;;4.87;62.33;97933.41;8383390;28;20229;-75
2022/12/03 14:25:28;;;;;;;16.17;13.70;;;;;;;4.67;62.09;97928.72;8382887;28;20234;-75
2022/12/03 14:29:31;;;;;;;11.77;9.93;;;;;;;4.93;62.41;97928.16;8383043;28;20241;-75
2022/12/03 14:33:35;;;;;;;11.23;9.77;;;;;;;4.22;64.02;97939.00;8382589;28;20244;-75
2022/12/03 14:37:38;;;;;;;10.80;9.57;;;;;;;4.45;63.94;97939.41;8382758;28;20295;-75
2022/12/03 14:46:01;;;;;;;11.50;9.73;;;;;;;4.60;63.86;97934.84;8381992;28;20234;-74
2022/12/03 14:50:07;;;;;;;12.00;9.47;;;;;;;4.27;63.88;97937.22;8382245;28;20237;-75
2022/12/03 14:54:09;;;;;;;11.03;9.63;;;;;;;3.89;64.95;97929.38;8381741;28;20225;-74
2022/12/03 14:58:13;;;;;;;10.13;8.60;;;;;;;4.03;63.59;97939.34;8382043;28;20233;-74
2022/12/03 15:02:15;;;;;;;10.23;8.67;;;;;;;4.25;63.92;97933.84;8382197;28;20524;-74
2022/12/03 15:06:19;;;;;;;12.90;9.53;;;;;;;4.16;63.03;97931.44;8382063;28;20247;-74
2022/12/03 15:10:22;;;;;;;11.00;9.17;;;;;;;3.81;63.39;97856.06;8381728;28;20420;-75
2022/12/03 15:14:25;;;;;;;10.47;9.37;;;;;;;4.68;62.12;97936.38;8381741;28;20256;-75
2022/12/03 15:18:29;;;;;;;46.87;29.90;;;;;;;4.41;63.67;97945.47;8380458;28;20249;-74
2022/12/03 15:22:33;;;;;;;11.97;10.67;;;;;;;3.83;64.45;97944.03;8381206;28;20283;-75
2022/12/03 15:26:37;;;;;;;13.67;11.43;;;;;;;3.64;64.50;97935.81;8381098;28;20233;-75
2022/12/03 15:30:39;;;;;;;12.53;10.00;;;;;;;4.69;61.72;97870.53;8381468;28;20229;-75
2022/12/03 15:34:42;;;;;;;10.33;9.17;;;;;;;4.67;62.44;97937.25;8381087;28;20236;-76
2022/12/03 15:39:01;;;;;;;10.27;9.17;;;;;;;4.24;63.80;97934.69;8364260;28;20232;-75
2022/12/03 15:43:04;;;;;;;12.50;11.20;;;;;;;4.17;63.60;97916.03;8381091;28;20232;-76
2022/12/03 15:47:07;;;;;;;10.40;9.30;;;;;;;4.37;64.07;97936.16;8380447;28;20229;-75
2022/12/03 15:51:10;;;;;;;11.17;9.40;;;;;;;4.70;62.04;97944.88;8380828;28;20303;-76
2022/12/03 15:55:15;;;;;;;12.13;10.40;;;;;;;4.92;62.06;97949.53;8380847;28;20225;-76
2022/12/03 15:59:17;;;;;;;12.40;10.53;;;;;;;4.45;62.88;97938.56;8380588;28;20240;-75
2022/12/03 16:03:20;;;;;;;11.17;9.53;;;;;;;4.59;63.50;97941.69;8380904;28;20289;-75
2022/12/03 16:07:23;;;;;;;10.47;9.37;;;;;;;4.88;61.58;97941.06;8379866;28;20228;-75
2022/12/03 16:11:27;;;;;;;12.53;10.57;;;;;;;4.02;63.58;97941.97;8380732;28;20282;-76
2022/12/03 16:15:29;;;;;;;11.63;9.97;;;;;;;4.43;62.80;97953.97;8380732;28;20444;-75
2022/12/03 16:19:32;;;;;;;21.17;18.83;;;;;;;4.43;62.19;97946.28;8380850;28;20418;-75
2022/12/03 16:23:35;;;;;;;12.60;11.13;;;;;;;4.95;61.04;97946.94;8380345;28;20226;-75
2022/12/03 16:27:39;;;;;;;13.33;10.47;;;;;;;4.34;62.92;97963.56;8379963;28;20241;-75
2022/12/03 16:31:42;;;;;;;11.97;10.67;;;;;;;4.34;62.34;97948.19;8380690;28;20300;-74
2022/12/03 16:35:45;;;;;;;10.67;9.37;;;;;;;4.15;63.35;97957.94;8380128;28;20231;-74
2022/12/03 16:39:49;;;;;;;11.70;10.50;;;;;;;4.81;61.09;97957.47;8379966;28;20232;-74
2022/12/03 16:43:53;;;;;;;12.30;10.87;;;;;;;4.60;61.79;97948.50;8380005;28;20229;-74
2022/12/03 16:47:56;;;;;;;11.93;10.63;;;;;;;4.13;63.41;97947.72;8371803;28;20235;-73
2022/12/03 16:51:58;;;;;;;12.93;11.60;;;;;;;4.36;62.25;97943.88;8379894;28;20411;-74
2022/12/03 16:56:02;;;;;;;21.17;18.23;;;;;;;4.45;62.42;97943.69;8380016;28;20224;-74
2022/12/03 17:00:07;;;;;;;12.63;10.87;;;;;;;4.03;63.17;97947.03;8379958;28;20224;-75
2022/12/03 17:04:10;;;;;;;13.10;10.80;;;;;;;3.75;64.17;97936.47;8379662;28;20274;-75
2022/12/03 17:08:13;;;;;;;12.57;10.50;;;;;;;3.47;65.11;97948.88;8379775;28;20434;-75
2022/12/03 17:12:16;;;;;;;11.73;9.87;;;;;;;3.83;64.28;97933.78;8379418;28;20295;-75
2022/12/03 17:16:20;;;;;;;12.40;11.10;;;;;;;4.15;68.64;97940.88;8381306;28;20423;-75
2022/12/03 17:20:23;;;;;;;14.70;10.43;;;;;;;5.66;72.08;97937.56;8386421;28;20237;-79
2022/12/03 17:24:25;;;;;;;10.17;9.03;;;;;;;5.74;59.89;97924.50;8386078;28;20240;-78
2022/12/03 17:28:28;;;;;;;11.80;10.40;;;;;;;4.48;62.07;97936.78;8385098;28;20237;-75
2022/12/03 17:32:33;;;;;;;11.23;10.00;;;;;;;4.11;62.99;97929.81;8384976;28;20229;-75
2022/12/03 17:36:35;;;;;;;12.23;10.80;;;;;;;4.45;62.39;97928.31;8384735;28;20226;-75
2022/12/03 17:40:38;;;;;;;14.00;11.37;;;;;;;4.15;64.03;97930.63;8384898;28;20533;-73
2022/12/03 17:44:41;;;;;;;12.47;10.80;;;;;;;4.72;62.12;97915.78;8384206;28;20457;-74
2022/12/03 17:48:45;;;;;;;12.83;11.27;;;;;;;3.90;64.10;97905.44;8384527;28;20228;-74
2022/12/03 17:52:48;;;;;;;15.43;13.23;;;;;;;4.28;63.53;97903.88;8384398;28;20235;-73
2022/12/03 17:56:51;;;;;;;13.73;11.80;;;;;;;4.34;62.94;97892.66;8384172;28;20233;-74
2022/12/03 18:00:54;;;;;;;14.87;11.93;;;;;;;3.92;64.58;97890.88;8383704;28;20327;-74
2022/12/03 18:05:06;;;;;;;12.30;10.63;;;;;;;4.19;64.32;97896.34;8383707;28;20225;-73
2022/12/03 18:09:08;;;;;;;13.17;11.53;;;;;;;4.35;63.06;97899.44;8383575;28;20274;-74
2022/12/03 18:13:11;;;;;;;13.70;11.33;;;;;;;3.86;65.38;97895.28;8383717;28;20233;-74
2022/12/03 18:17:14;;;;;;;13.90;11.60;;;;;;;4.00;63.23;97844.63;8383597;28;20225;-74
2022/12/03 18:21:18;;;;;;;13.53;11.87;;;;;;;4.49;63.02;97912.84;8383401;28;20248;-73
2022/12/03 18:25:21;;;;;;;15.67;12.60;;;;;;;4.32;62.84;97907.19;8383189;28;20435;-72
2022/12/03 18:29:23;;;;;;;16.70;13.90;;;;;;;4.32;63.11;97909.75;8382166;28;20237;-73
2022/12/03 18:33:27;;;;;;;25.13;20.53;;;;;;;4.76;63.05;97912.25;8382829;28;20275;-73
2022/12/03 18:37:31;;;;;;;16.77;14.10;;;;;;;4.21;64.13;97914.28;8382951;28;20259;-72
2022/12/03 18:41:35;;;;;;;17.40;13.50;;;;;;;4.23;62.63;97890.28;8382873;28;20308;-72
2022/12/03 18:45:37;;;;;;;14.63;12.17;;;;;;;3.58;65.30;97905.16;8382519;28;20233;-74
2022/12/03 18:49:41;;;;;;;16.33;14.00;;;;;;;3.96;64.13;97899.38;8381786;28;20239;-72
2022/12/03 18:53:45;;;;;;;19.37;15.53;;;;;;;4.06;63.97;97879.53;8382280;28;20290;-74
2022/12/03 18:57:48;;;;;;;15.53;12.67;;;;;;;3.56;65.43;97886.41;8381998;28;20400;-74
2022/12/03 19:01:50;;;;;;;15.67;13.27;;;;;;;3.92;65.23;97890.88;8381569;28;20236;-74
2022/12/03 19:05:53;;;;;;;16.47;13.43;;;;;;;4.02;64.71;97883.88;8373477;28;20252;-73
2022/12/03 19:09:57;;;;;;;16.70;13.57;;;;;;;4.27;63.98;97891.06;8382259;28;20253;-75
2022/12/03 19:14:01;;;;;;;23.03;16.67;;;;;;;4.03;64.30;97888.09;8382885;28;20229;-75
2022/12/03 19:18:06;;;;;;;16.97;13.67;;;;;;;3.63;66.29;97885.44;8384237;28;20529;-75
2022/12/03 19:22:09;;;;;;;17.43;14.27;;;;;;;3.82;66.06;97888.50;8385002;28;20229;-74